Time;durP1;ratioP1;P1;durP2;ratioP2;P2;SDS_P1;SDS_P2;PMS_P1;PMS_P2;Temp;Humidity;BMP_temperature;BMP_pressure;BME280_temperature;BME280_humidity;BME280_pressure;Samples;Min_cycle;Max_cycle;Signal;HPM_P1;HPM_P2
2022/06/21 03:00:24;;;;;;;6.85;3.30;;;10.20;99.90;;;;;;6028612;23;20945;-79
2022/06/21 03:02:51;;;;;;;4.85;2.88;;;10.20;99.90;;;;;;4953825;29;20047;-79
2022/06/21 03:05:22;;;;;;;5.72;3.40;;;10.20;99.90;;;;;;4954641;29;20062;-80
2022/06/21 03:07:55;;;;;;;7.35;3.42;;;10.10;99.90;;;;;;4956011;28;20039;-80
2022/06/21 03:10:34;;;;;;;12.27;3.78;;;10.10;99.90;;;;;;4954648;28;20031;-82
2022/06/21 03:13:16;;;;;;;6.60;3.22;;;10.10;99.90;;;;;;4954878;29;20464;-81
2022/06/21 03:15:49;;;;;;;6.80;3.03;;;10.10;99.90;;;;;;4938356;29;20072;-80
2022/06/21 03:18:25;;;;;;;3.80;2.70;;;10.00;99.90;;;;;;4957431;28;20032;-79
2022/06/21 03:20:52;;;;;;;6.07;2.67;;;10.00;99.90;;;;;;4958123;28;20043;-80
2022/06/21 03:23:19;;;;;;;6.82;2.83;;;10.00;99.90;;;;;;4958890;29;20091;-78
2022/06/21 03:25:58;;;;;;;6.18;3.20;;;10.00;99.90;;;;;;4958365;29;20126;-81
2022/06/21 03:28:35;;;;;;;5.93;3.13;;;9.90;99.90;;;;;;4958210;29;20035;-81
2022/06/21 03:31:07;;;;;;;6.40;3.85;;;9.90;99.90;;;;;;4958053;28;20043;-82
2022/06/21 03:33:35;;;;;;;10.75;4.90;;;9.90;99.90;;;;;;4958449;29;20047;-80
2022/06/21 03:36:04;;;;;;;6.00;2.45;;;9.90;99.90;;;;;;4942512;29;20057;-80
2022/06/21 03:38:30;;;;;;;5.30;2.90;;;9.90;99.90;;;;;;4958088;29;20054;-80
2022/06/21 03:43:46;;;;;;;8.27;4.18;;;9.80;99.90;;;;;;4958083;29;20051;-80
2022/06/21 03:46:29;;;;;;;7.30;4.72;;;9.70;99.90;;;;;;4958415;29;20082;-79
2022/06/21 03:49:10;;;;;;;8.27;4.90;;;9.70;99.90;;;;;;4958893;29;20050;-79
2022/06/21 03:51:41;;;;;;;9.38;4.93;;;9.60;99.90;;;;;;4958040;28;20047;-79
2022/06/21 03:54:26;;;;;;;8.23;4.85;;;9.60;99.90;;;;;;4957838;29;20047;-80
2022/06/21 03:56:56;;;;;;;9.63;4.93;;;9.70;99.90;;;;;;4959052;29;20551;-80
2022/06/21 03:59:32;;;;;;;10.82;5.68;;;9.80;99.90;;;;;;4958299;29;20047;-80
2022/06/21 04:02:11;;;;;;;11.05;4.63;;;9.80;99.90;;;;;;4957340;28;20098;-80
2022/06/21 04:04:46;;;;;;;7.90;4.47;;;9.80;99.90;;;;;;4957554;29;20047;-79
2022/06/21 04:07:18;;;;;;;8.95;4.93;;;9.80;99.90;;;;;;4957782;29;20054;-79
2022/06/21 04:10:07;;;;;;;8.65;4.50;;;9.80;99.90;;;;;;4959057;28;20532;-80
2022/06/21 04:12:42;;;;;;;10.43;4.88;;;9.90;99.90;;;;;;4957696;28;20094;-80
2022/06/21 04:15:37;;;;;;;8.93;5.07;;;9.80;99.90;;;;;;4957538;29;20047;-81
2022/06/21 04:18:06;;;;;;;12.63;5.07;;;9.90;99.90;;;;;;4957672;29;20051;-79
2022/06/21 04:21:09;;;;;;;11.02;5.22;;;9.90;99.90;;;;;;4957612;28;20047;-80
2022/06/21 04:23:48;;;;;;;7.90;4.95;;;10.00;99.90;;;;;;4957909;28;20106;-78
2022/06/21 04:26:34;;;;;;;10.20;5.35;;;10.00;99.90;;;;;;4941502;29;20043;-80
2022/06/21 04:29:24;;;;;;;11.77;5.95;;;10.10;99.90;;;;;;4973211;28;20538;-79
2022/06/21 04:31:56;;;;;;;11.20;5.25;;;10.30;99.90;;;;;;4957016;28;20058;-79
2022/06/21 04:34:28;;;;;;;10.98;5.63;;;10.30;99.90;;;;;;4957444;29;20055;-80
2022/06/21 04:37:09;;;;;;;11.85;5.22;;;10.40;99.90;;;;;;4957329;29;20058;-79
2022/06/21 04:39:45;;;;;;;9.13;5.50;;;10.50;99.90;;;;;;4958702;28;20489;-79
2022/06/21 04:42:26;;;;;;;11.40;5.15;;;10.60;99.90;;;;;;4958583;28;20391;-80
2022/06/21 04:45:17;;;;;;;9.68;5.43;;;10.60;99.90;;;;;;4957988;29;20129;-81
2022/06/21 04:47:59;;;;;;;11.80;5.95;;;10.70;99.90;;;;;;4957099;29;20051;-80
2022/06/21 04:50:31;;;;;;;14.85;6.55;;;10.80;99.90;;;;;;4958653;28;20043;-79
2022/06/21 04:53:05;;;;;;;16.98;7.05;;;10.90;99.90;;;;;;4958365;29;20043;-79
2022/06/21 04:55:48;;;;;;;12.55;6.47;;;10.90;99.90;;;;;;4958292;28;20066;-79
2022/06/21 04:58:14;;;;;;;10.85;6.43;;;11.00;99.90;;;;;;4956928;28;20126;-79
2022/06/21 05:00:40;;;;;;;9.27;6.93;;;11.10;99.90;;;;;;4940338;29;20142;-80
2022/06/21 05:03:22;;;;;;;13.70;7.88;;;11.20;99.90;;;;;;4956999;29;20085;-79
2022/06/21 05:05:48;;;;;;;10.27;6.32;;;11.20;99.90;;;;;;4957228;29;20046;-80
2022/06/21 05:08:19;;;;;;;11.15;6.50;;;11.30;99.90;;;;;;4956672;29;20027;-80
2022/06/21 05:10:48;;;;;;;11.25;6.65;;;11.40;99.90;;;;;;4925959;29;20075;-80
2022/06/21 05:13:34;;;;;;;13.52;6.78;;;11.50;99.90;;;;;;4956631;29;20062;-82
2022/06/21 05:16:04;;;;;;;11.15;6.32;;;11.50;99.90;;;;;;4956284;29;20098;-80
2022/06/21 05:18:42;;;;;;;10.98;6.55;;;11.60;99.90;;;;;;4957656;28;20463;-80
2022/06/21 05:21:22;;;;;;;10.65;5.40;;;11.70;99.90;;;;;;4957574;28;20043;-81
2022/06/21 05:23:47;;;;;;;11.40;6.40;;;11.80;99.90;;;;;;4956689;29;20051;-80
2022/06/21 05:26:24;;;;;;;15.10;6.38;;;11.80;99.90;;;;;;4956569;29;20086;-80
2022/06/21 05:28:58;;;;;;;10.95;6.28;;;11.90;99.90;;;;;;4958845;29;20098;-80
2022/06/21 05:31:29;;;;;;;11.13;5.70;;;11.90;99.90;;;;;;4956557;28;20126;-80
2022/06/21 05:34:00;;;;;;;11.05;6.05;;;12.00;99.90;;;;;;4965492;29;20102;-78
2022/06/21 05:36:35;;;;;;;11.82;5.15;;;12.00;99.90;;;;;;4968345;29;20079;-79
2022/06/21 05:39:11;;;;;;;15.20;6.80;;;12.00;99.90;;;;;;4958483;29;20377;-81
2022/06/21 05:41:43;;;;;;;13.88;6.28;;;12.10;99.90;;;;;;4956147;28;20054;-83
2022/06/21 05:44:08;;;;;;;11.05;6.40;;;12.10;99.90;;;;;;4958811;28;20098;-81
2022/06/21 05:46:39;;;;;;;15.30;6.60;;;12.10;99.90;;;;;;4956197;29;20075;-83
2022/06/21 05:49:08;;;;;;;12.20;6.82;;;12.10;99.90;;;;;;4957616;28;20119;-81
2022/06/21 05:51:34;;;;;;;10.55;7.15;;;12.10;99.90;;;;;;4956505;28;20043;-81
2022/06/21 05:54:06;;;;;;;13.20;6.20;;;12.10;99.90;;;;;;4957091;28;20126;-80
2022/06/21 05:56:34;;;;;;;17.85;8.02;;;12.10;99.90;;;;;;4955694;29;20391;-82
2022/06/21 05:59:12;;;;;;;13.48;7.05;;;12.20;99.90;;;;;;4940591;29;20134;-82
2022/06/21 06:02:02;;;;;;;11.40;6.63;;;12.30;99.90;;;;;;4955406;28;20043;-81
2022/06/21 06:04:37;;;;;;;11.65;6.55;;;12.30;99.90;;;;;;4956743;29;20398;-80
2022/06/21 06:07:04;;;;;;;11.00;6.15;;;12.40;99.90;;;;;;4956947;29;20043;-81
2022/06/21 06:09:38;;;;;;;11.13;6.43;;;12.40;99.90;;;;;;4956852;29;20047;-80
2022/06/21 06:12:19;;;;;;;11.57;6.18;;;12.50;99.90;;;;;;4971668;28;20094;-81
2022/06/21 06:15:12;;;;;;;10.93;4.82;;;12.50;99.90;;;;;;4955449;29;20427;-80
2022/06/21 06:17:55;;;;;;;9.82;4.00;;;12.60;99.90;;;;;;4955602;29;20414;-80
2022/06/21 06:20:32;;;;;;;7.80;4.30;;;12.60;99.90;;;;;;4956295;28;20039;-80
2022/06/21 06:23:16;;;;;;;11.00;4.50;;;12.70;99.90;;;;;;4954808;29;20043;-80
2022/06/21 06:25:56;;;;;;;8.40;3.95;;;12.70;99.90;;;;;;4955062;29;20039;-79
2022/06/21 06:28:22;;;;;;;7.90;3.45;;;12.80;99.90;;;;;;4955105;29;20043;-79
2022/06/21 06:31:11;;;;;;;10.55;4.07;;;12.80;99.90;;;;;;4954981;28;20403;-79
2022/06/21 06:33:42;;;;;;;7.20;3.95;;;12.80;99.90;;;;;;4954997;29;20103;-80
2022/06/21 06:36:15;;;;;;;6.95;3.10;;;12.80;99.90;;;;;;4955226;29;20039;-79
2022/06/21 06:38:41;;;;;;;5.93;2.75;;;12.90;99.90;;;;;;4955194;29;20126;-78
2022/06/21 06:41:32;;;;;;;8.95;2.55;;;12.90;99.90;;;;;;4956213;28;20045;-80
2022/06/21 06:44:11;;;;;;;7.75;2.78;;;12.90;99.90;;;;;;4956352;28;20447;-79
2022/06/21 06:46:42;;;;;;;11.70;3.42;;;12.90;99.90;;;;;;4955544;29;20042;-79
2022/06/21 06:49:21;;;;;;;8.93;3.65;;;13.00;99.90;;;;;;4939343;29;20047;-80
2022/06/21 06:52:11;;;;;;;7.15;3.08;;;13.10;99.90;;;;;;4954889;29;20454;-80
2022/06/21 06:54:58;;;;;;;11.35;2.92;;;13.10;99.90;;;;;;4954404;29;20425;-81
2022/06/21 06:57:37;;;;;;;9.43;2.95;;;13.10;99.90;;;;;;4954863;29;20079;-81
2022/06/21 07:00:19;;;;;;;8.32;2.70;;;13.10;99.90;;;;;;4958484;28;20118;-80
2022/06/21 07:03:22;;;;;;;11.82;3.33;;;13.20;99.90;;;;;;4956577;28;20043;-79
2022/06/21 07:05:58;;;;;;;15.27;3.50;;;13.30;99.90;;;;;;4962089;28;20050;-81
2022/06/21 07:08:43;;;;;;;7.45;2.70;;;13.40;99.90;;;;;;4954779;29;20489;-81
2022/06/21 07:11:38;;;;;;;8.48;2.78;;;13.50;99.90;;;;;;4955609;28;20050;-79
2022/06/21 07:14:05;;;;;;;6.03;2.50;;;13.60;99.90;;;;;;4952121;29;20046;-80
2022/06/21 07:16:34;;;;;;;6.53;2.15;;;13.70;99.90;;;;;;4953951;28;20122;-79
2022/06/21 07:19:01;;;;;;;9.07;2.40;;;13.80;99.90;;;;;;4956104;28;20098;-79
2022/06/21 07:21:27;;;;;;;8.05;3.05;;;13.90;99.90;;;;;;4954364;28;20390;-80
2022/06/21 07:24:01;;;;;;;12.23;3.17;;;14.00;99.90;;;;;;4938244;29;20047;-79
2022/06/21 07:26:32;;;;;;;6.50;2.33;;;14.10;99.90;;;;;;4954279;29;20369;-81
2022/06/21 07:28:58;;;;;;;8.88;2.28;;;14.10;99.90;;;;;;4956312;28;20130;-80
2022/06/21 07:31:37;;;;;;;6.72;2.10;;;14.10;99.90;;;;;;4954253;28;20107;-79
2022/06/21 07:34:05;;;;;;;5.40;2.08;;;14.20;99.90;;;;;;4954435;29;20118;-80
2022/06/21 07:36:40;;;;;;;9.07;2.55;;;14.30;99.90;;;;;;4938747;29;20499;-79
2022/06/21 07:39:13;;;;;;;8.63;2.20;;;14.30;99.90;;;;;;4954619;29;20039;-80
2022/06/21 07:41:56;;;;;;;12.48;3.47;;;14.30;99.90;;;;;;4954478;28;20050;-80
2022/06/21 07:44:52;;;;;;;8.93;2.35;;;14.40;99.90;;;;;;4954969;29;20054;-81
2022/06/21 07:47:42;;;;;;;6.95;2.70;;;14.50;99.90;;;;;;4955742;28;20035;-80
2022/06/21 07:50:22;;;;;;;8.32;2.50;;;14.60;99.90;;;;;;4954952;29;20122;-80
2022/06/21 07:52:53;;;;;;;6.97;2.08;;;14.70;99.90;;;;;;4954298;29;20440;-80
2022/06/21 07:55:38;;;;;;;5.38;2.15;;;15.00;99.90;;;;;;4938429;29;20035;-80
2022/06/21 07:58:32;;;;;;;7.32;2.20;;;15.10;99.90;;;;;;4954406;29;20407;-80
2022/06/21 08:06:45;;;;;;;6.53;2.05;;;14.80;99.90;;;;;;4957348;29;20055;-80
2022/06/21 08:09:26;;;;;;;7.43;1.85;;;14.80;99.90;;;;;;4957160;29;20046;-80
2022/06/21 08:11:55;;;;;;;6.00;1.90;;;14.60;99.90;;;;;;4957416;28;20047;-79
2022/06/21 08:14:34;;;;;;;6.32;2.03;;;14.60;99.90;;;;;;4958889;28;20047;-80
2022/06/21 08:16:59;;;;;;;4.82;2.15;;;14.70;99.90;;;;;;4941681;29;20111;-79
2022/06/21 08:19:28;;;;;;;7.13;1.77;;;14.80;99.90;;;;;;4941169;29;20047;-79
2022/06/21 08:22:03;;;;;;;7.10;1.63;;;15.00;99.90;;;;;;4958175;28;20040;-77
2022/06/21 08:24:39;;;;;;;5.57;2.05;;;15.20;99.90;;;;;;4942790;29;20078;-78
2022/06/21 08:27:22;;;;;;;5.65;2.13;;;15.30;99.90;;;;;;4942021;29;20043;-77
2022/06/21 08:30:06;;;;;;;7.60;1.90;;;15.50;99.90;;;;;;4957565;29;20122;-80
2022/06/21 08:32:51;;;;;;;5.72;2.22;;;15.60;99.90;;;;;;4941997;29;20046;-79
2022/06/21 08:35:28;;;;;;;6.53;2.40;;;15.80;99.90;;;;;;4941833;29;20042;-80
2022/06/21 08:38:13;;;;;;;6.43;2.28;;;15.90;99.90;;;;;;4958429;29;20039;-79
2022/06/21 08:40:57;;;;;;;7.67;2.30;;;16.00;99.90;;;;;;4957601;28;20046;-81
2022/06/21 08:43:44;;;;;;;8.32;2.22;;;16.20;99.90;;;;;;4941786;29;20039;-80
2022/06/21 08:46:22;;;;;;;6.32;1.92;;;16.40;99.90;;;;;;4957348;29;20049;-80
2022/06/21 08:49:19;;;;;;;5.65;2.22;;;16.60;99.90;;;;;;4940765;29;20046;-79
2022/06/21 08:51:57;;;;;;;8.95;2.50;;;16.70;99.90;;;;;;4942568;29;20051;-79
2022/06/21 08:54:29;;;;;;;5.32;1.95;;;16.70;99.90;;;;;;4941896;29;20047;-78
2022/06/21 08:57:30;;;;;;;4.80;1.90;;;16.60;99.90;;;;;;4957181;29;20051;-80
2022/06/21 09:00:02;;;;;;;5.40;2.20;;;16.40;99.90;;;;;;4942256;29;20046;-81
2022/06/21 09:02:27;;;;;;;4.47;2.08;;;16.40;99.90;;;;;;4956981;28;20078;-82
2022/06/21 09:05:15;;;;;;;5.55;1.60;;;16.50;99.90;;;;;;4957041;29;20098;-80
2022/06/21 09:07:52;;;;;;;9.70;2.00;;;16.60;99.90;;;;;;4957237;29;20476;-82
2022/06/21 09:10:42;;;;;;;7.68;2.10;;;16.70;99.90;;;;;;4958519;28;20041;-80
2022/06/21 09:13:20;;;;;;;5.72;1.88;;;16.90;99.90;;;;;;4940564;29;20134;-80
2022/06/21 09:16:22;;;;;;;5.97;2.40;;;17.10;99.90;;;;;;4940652;29;20063;-81
2022/06/21 09:18:54;;;;;;;5.50;2.00;;;17.20;99.90;;;;;;4940653;29;20143;-80
2022/06/21 09:21:33;;;;;;;7.70;2.67;;;17.40;99.90;;;;;;4956083;28;20131;-79
2022/06/21 09:24:05;;;;;;;4.00;1.50;;;17.30;99.90;;;;;;4941387;29;20036;-81
2022/06/21 09:26:39;;;;;;;8.18;1.85;;;17.30;99.90;;;;;;4956520;29;20046;-78
2022/06/21 09:29:18;;;;;;;5.05;1.60;;;17.40;99.90;;;;;;4941104;29;20047;-81
2022/06/21 09:31:50;;;;;;;5.07;1.60;;;17.60;99.90;;;;;;4940430;29;20050;-81
2022/06/21 09:34:25;;;;;;;5.88;2.08;;;17.80;99.90;;;;;;4940685;29;20107;-81
2022/06/21 09:37:23;;;;;;;7.82;1.92;;;18.10;99.90;;;;;;4956811;29;20476;-80
2022/06/21 09:40:09;;;;;;;3.13;1.40;;;18.20;99.90;;;;;;4940735;29;20047;-80
2022/06/21 09:42:58;;;;;;;3.55;1.80;;;18.30;99.90;;;;;;4956221;28;20043;-80
2022/06/21 09:45:54;;;;;;;10.32;2.17;;;18.30;99.90;;;;;;4941550;29;20042;-79
2022/06/21 09:48:34;;;;;;;6.82;1.60;;;18.20;99.90;;;;;;4940137;29;20134;-79
2022/06/21 09:51:12;;;;;;;6.65;2.60;;;18.10;99.90;;;;;;4956722;28;20043;-82
2022/06/21 09:54:05;;;;;;;6.35;2.30;;;18.10;99.90;;;;;;4957253;29;20133;-81
2022/06/21 09:56:48;;;;;;;7.53;2.28;;;18.30;99.90;;;;;;4956751;29;20079;-82
2022/06/21 09:59:28;;;;;;;5.03;1.60;;;18.20;99.90;;;;;;4957115;29;20043;-79
2022/06/21 10:02:15;;;;;;;4.68;1.98;;;18.00;99.90;;;;;;4939789;29;20043;-80
2022/06/21 10:04:54;;;;;;;5.18;1.90;;;18.20;99.90;;;;;;4955845;29;20361;-79
2022/06/21 10:07:25;;;;;;;6.88;2.22;;;18.40;99.90;;;;;;4955999;29;20035;-79
2022/06/21 10:09:57;;;;;;;3.92;1.73;;;18.50;99.90;;;;;;4939541;29;20035;-81
2022/06/21 10:12:37;;;;;;;3.40;1.30;;;18.70;99.90;;;;;;4939381;29;20058;-80
2022/06/21 10:15:21;;;;;;;3.80;1.55;;;18.90;99.90;;;;;;4955907;29;20078;-81
2022/06/21 10:17:55;;;;;;;5.32;1.52;;;19.00;99.90;;;;;;4958009;28;20074;-79
2022/06/21 10:20:36;;;;;;;5.78;1.80;;;19.10;99.90;;;;;;4957492;28;20452;-79
2022/06/21 10:23:32;;;;;;;4.90;1.52;;;19.30;99.90;;;;;;4956367;29;20039;-81
2022/06/21 10:26:06;;;;;;;7.25;1.75;;;19.50;99.90;;;;;;4955584;29;20042;-80
2022/06/21 10:28:57;;;;;;;4.05;1.40;;;19.60;99.90;;;;;;4938813;29;20039;-81
2022/06/21 10:31:50;;;;;;;4.97;1.40;;;19.80;99.90;;;;;;4956926;28;20039;-80
2022/06/21 10:34:53;;;;;;;4.68;1.60;;;20.00;99.90;;;;;;4957111;28;20364;-80
2022/06/21 10:37:57;;;;;;;5.00;1.40;;;20.20;99.90;;;;;;4955580;29;20090;-81
2022/06/21 10:40:41;;;;;;;4.15;1.23;;;20.30;99.90;;;;;;4956449;28;20054;-80
2022/06/21 10:43:30;;;;;;;5.72;1.42;;;20.30;99.90;;;;;;4956764;28;20043;-80
2022/06/21 10:46:20;;;;;;;5.93;1.42;;;20.30;99.90;;;;;;4955566;29;20074;-80
2022/06/21 10:48:46;;;;;;;2.85;1.20;;;20.20;99.90;;;;;;4955401;29;20043;-80
2022/06/21 10:51:35;;;;;;;2.20;1.08;;;20.30;99.90;;;;;;4955394;28;20141;-78
2022/06/21 10:54:29;;;;;;;3.97;1.40;;;20.50;99.90;;;;;;4937513;29;20071;-80
2022/06/21 10:57:13;;;;;;;3.40;1.08;;;20.50;99.90;;;;;;4935991;29;20587;-81
2022/06/21 11:03:09;;;;;;;3.33;1.23;;;20.40;99.90;;;;;;4935592;29;20083;-80
2022/06/21 11:05:56;;;;;;;16.75;2.70;;;20.50;99.90;;;;;;4937551;29;20039;-82
2022/06/21 11:08:56;;;;;;;4.97;1.13;;;20.60;99.90;;;;;;4935789;29;20055;-82
2022/06/21 11:11:39;;;;;;;5.72;1.73;;;20.70;99.90;;;;;;4936823;29;20485;-83
2022/06/21 11:14:13;;;;;;;3.58;1.10;;;20.70;99.90;;;;;;4935664;29;20044;-84
2022/06/21 11:17:03;;;;;;;3.55;1.50;;;20.70;99.90;;;;;;4935937;29;20075;-83
2022/06/21 11:19:59;;;;;;;5.13;1.38;;;20.60;99.90;;;;;;4937462;29;20035;-80
2022/06/21 11:22:46;;;;;;;4.05;1.13;;;20.60;99.90;;;;;;4935809;29;20531;-82
2022/06/21 11:25:27;;;;;;;4.63;1.42;;;20.80;99.90;;;;;;4935610;29;20580;-82
2022/06/21 11:28:10;;;;;;;2.75;1.00;;;20.90;99.90;;;;;;4935722;29;20044;-81
2022/06/21 11:30:52;;;;;;;4.57;1.40;;;20.90;99.90;;;;;;4919716;29;20102;-84
2022/06/21 11:33:37;;;;;;;4.80;1.33;;;21.00;99.90;;;;;;4937198;29;20048;-83
2022/06/21 11:36:33;;;;;;;5.47;1.50;;;21.20;99.90;;;;;;4936720;29;20039;-82
2022/06/21 11:39:38;;;;;;;6.95;1.20;;;21.30;99.90;;;;;;4938420;29;20047;-82
2022/06/21 11:42:17;;;;;;;4.35;1.30;;;21.20;99.90;;;;;;4939254;29;20055;-81
2022/06/21 11:45:01;;;;;;;5.90;1.27;;;21.30;99.90;;;;;;4940888;29;20083;-81
2022/06/21 11:48:10;;;;;;;4.45;1.20;;;21.40;99.90;;;;;;4939473;29;20036;-80
2022/06/21 11:51:10;;;;;;;4.05;1.10;;;21.40;99.90;;;;;;4940148;29;20052;-79
2022/06/21 11:53:54;;;;;;;3.42;1.02;;;21.50;99.90;;;;;;4939174;29;20066;-83
2022/06/21 11:56:22;;;;;;;5.28;1.20;;;21.70;99.90;;;;;;4940053;29;20043;-82
2022/06/21 11:59:00;;;;;;;3.83;1.05;;;21.70;99.90;;;;;;4923780;29;20416;-84
2022/06/21 12:01:34;;;;;;;3.55;1.10;;;21.80;99.90;;;;;;4941221;29;20040;-82
2022/06/21 12:04:37;;;;;;;3.58;1.40;;;21.90;99.90;;;;;;4939586;29;20039;-82
2022/06/21 12:07:13;;;;;;;3.33;1.02;;;22.00;99.90;;;;;;4938959;29;20047;-81
2022/06/21 12:09:45;;;;;;;4.88;1.10;;;22.10;99.90;;;;;;4940247;29;20039;-80
2022/06/21 12:12:36;;;;;;;3.20;0.90;;;22.00;98.60;;;;;;4948043;29;20139;-78
2022/06/21 12:15:12;;;;;;;3.28;0.85;;;22.10;98.40;;;;;;4932248;29;20135;-80
2022/06/21 12:17:57;;;;;;;2.05;0.80;;;22.10;96.00;;;;;;4947138;29;20108;-83
2022/06/21 12:20:37;;;;;;;2.55;0.70;;;22.10;96.30;;;;;;4939759;29;20051;-81
2022/06/21 12:23:08;;;;;;;2.28;0.60;;;22.00;94.10;;;;;;4940015;29;20484;-78
2022/06/21 12:25:34;;;;;;;4.22;0.82;;;21.80;88.40;;;;;;4941078;29;20047;-81
2022/06/21 12:28:00;;;;;;;2.17;0.90;;;21.80;91.90;;;;;;4955503;29;20036;-82
2022/06/21 12:30:29;;;;;;;2.30;0.60;;;21.70;93.20;;;;;;4941526;29;20042;-81
2022/06/21 12:33:03;;;;;;;3.70;1.20;;;21.80;94.20;;;;;;4940945;29;20123;-82
2022/06/21 12:35:56;;;;;;;3.63;0.90;;;21.80;96.50;;;;;;4940175;29;20082;-82
2022/06/21 12:38:42;;;;;;;3.83;0.90;;;21.80;97.50;;;;;;4938746;29;20291;-81
2022/06/21 12:41:38;;;;;;;4.97;0.85;;;21.70;96.60;;;;;;4939109;29;20055;-83
2022/06/21 12:44:18;;;;;;;2.58;0.90;;;21.70;96.40;;;;;;4938584;29;20047;-84
2022/06/21 12:46:50;;;;;;;3.28;1.20;;;21.80;96.00;;;;;;4938335;29;20444;-85
2022/06/21 12:49:30;;;;;;;4.45;1.38;;;21.80;96.60;;;;;;4939865;29;20052;-84
2022/06/21 12:52:07;;;;;;;3.40;1.10;;;21.90;98.70;;;;;;4937656;29;20098;-84
2022/06/21 12:54:58;;;;;;;2.90;1.10;;;22.00;99.30;;;;;;4938066;29;20050;-78
2022/06/21 12:57:41;;;;;;;3.45;1.20;;;21.90;98.50;;;;;;4938600;29;20055;-86
2022/06/21 13:00:33;;;;;;;3.10;1.20;;;22.00;99.80;;;;;;4938195;29;20056;-82
2022/06/21 13:03:23;;;;;;;3.67;1.10;;;22.00;99.20;;;;;;4939681;29;20055;-85
2022/06/21 13:05:56;;;;;;;5.80;1.30;;;22.00;98.40;;;;;;4922817;29;20039;-84
2022/06/21 13:08:40;;;;;;;2.25;1.00;;;21.90;99.40;;;;;;4938449;29;20059;-85
2022/06/21 13:11:30;;;;;;;5.95;1.40;;;21.70;99.30;;;;;;4938308;29;20054;-83
2022/06/21 13:14:24;;;;;;;3.25;0.88;;;21.70;99.00;;;;;;4938507;29;20519;-84
2022/06/21 13:17:27;;;;;;;7.70;1.60;;;21.90;99.20;;;;;;4938279;29;20054;-83
2022/06/21 13:19:56;;;;;;;2.75;1.20;;;22.00;98.90;;;;;;4937847;29;20047;-83
2022/06/21 13:22:27;;;;;;;2.83;1.00;;;22.00;99.40;;;;;;4937939;29;20071;-85
2022/06/21 13:25:11;;;;;;;4.35;1.27;;;22.10;99.70;;;;;;4922426;29;20040;-85
2022/06/21 13:27:45;;;;;;;4.97;1.17;;;22.10;98.00;;;;;;4939083;29;20043;-86
2022/06/21 13:30:28;;;;;;;5.57;1.73;;;22.10;99.20;;;;;;4937903;29;20047;-85
2022/06/21 13:33:13;;;;;;;2.72;1.10;;;22.10;99.50;;;;;;4937777;29;20319;-84
2022/06/21 13:35:47;;;;;;;2.47;0.90;;;22.20;99.80;;;;;;4937139;29;20057;-81
2022/06/21 13:38:24;;;;;;;3.00;0.98;;;22.10;97.60;;;;;;4938350;29;20071;-83
2022/06/21 13:41:02;;;;;;;4.38;1.00;;;21.90;98.00;;;;;;4955135;28;20043;-81
2022/06/21 13:43:39;;;;;;;2.72;0.90;;;21.90;98.50;;;;;;4956911;29;20043;-81
2022/06/21 13:46:14;;;;;;;4.35;1.20;;;21.80;98.70;;;;;;4956329;29;20395;-81
2022/06/21 13:48:52;;;;;;;4.68;1.23;;;21.60;98.60;;;;;;4955789;29;20480;-83
2022/06/21 13:51:18;;;;;;;4.22;1.20;;;21.60;99.70;;;;;;4955693;28;20138;-82
2022/06/21 13:54:03;;;;;;;7.93;1.75;;;21.60;99.90;;;;;;4955447;29;20102;-78
2022/06/21 13:56:30;;;;;;;4.03;1.30;;;21.80;99.90;;;;;;4953821;29;20126;-85
2022/06/21 13:58:58;;;;;;;4.10;1.45;;;22.00;99.90;;;;;;4971866;28;20428;-84
2022/06/21 14:01:34;;;;;;;4.88;1.42;;;22.30;99.90;;;;;;4956065;28;20035;-81
2022/06/21 14:04:28;;;;;;;3.72;1.20;;;22.50;99.90;;;;;;4954122;29;20122;-81
2022/06/21 14:07:18;;;;;;;4.20;1.00;;;22.40;98.30;;;;;;4971213;28;20073;-82
2022/06/21 14:09:55;;;;;;;6.28;1.17;;;22.50;98.10;;;;;;4953403;29;20126;-84
2022/06/21 14:12:40;;;;;;;2.97;0.98;;;22.80;99.10;;;;;;4957138;28;20047;-85
2022/06/21 14:15:21;;;;;;;3.22;0.98;;;23.30;99.90;;;;;;4953730;29;20502;-84
2022/06/21 14:17:59;;;;;;;4.88;1.30;;;23.60;98.30;;;;;;4957302;28;20051;-84
2022/06/21 14:20:49;;;;;;;3.28;1.10;;;23.80;97.20;;;;;;4955946;28;20471;-84
2022/06/21 14:23:26;;;;;;;2.60;0.80;;;23.90;95.70;;;;;;4954525;29;20062;-84
2022/06/21 14:26:33;;;;;;;3.25;1.05;;;23.70;95.20;;;;;;4956537;29;20042;-82
2022/06/21 14:29:02;;;;;;;4.38;0.95;;;23.50;95.50;;;;;;4924907;28;20395;-83
2022/06/21 14:31:43;;;;;;;1.85;0.90;;;23.60;94.80;;;;;;4957518;28;20042;-84
2022/06/21 14:34:14;;;;;;;6.88;1.38;;;23.60;93.20;;;;;;4957533;29;20118;-86
2022/06/21 14:37:12;;;;;;;3.60;0.90;;;23.70;93.50;;;;;;4956166;29;20047;-84
2022/06/21 14:39:57;;;;;;;4.68;0.90;;;23.90;95.30;;;;;;4956014;29;20106;-86
2022/06/21 14:42:46;;;;;;;;;;;24.20;95.30;;;;;;4955961;28;20082;-84
2022/06/21 14:45:40;;;;;;;9.25;1.65;;;24.30;93.70;;;;;;4945477;29;20000;-82
2022/06/21 14:48:32;;;;;;;4.75;1.15;;;24.40;93.80;;;;;;4955804;29;20408;-85
2022/06/21 14:51:07;;;;;;;3.97;1.20;;;24.30;91.00;;;;;;4956081;28;20130;-82
2022/06/21 14:54:01;;;;;;;3.10;0.80;;;24.00;90.10;;;;;;4957428;29;20043;-85
2022/06/21 14:56:34;;;;;;;3.15;1.08;;;23.90;91.20;;;;;;4955915;29;20043;-84
2022/06/21 14:59:26;;;;;;;4.45;1.00;;;24.10;90.80;;;;;;4956931;29;20190;-83
2022/06/21 15:02:08;;;;;;;4.10;1.27;;;24.00;88.70;;;;;;4956388;28;20054;-83
2022/06/21 15:05:05;;;;;;;4.60;1.27;;;24.00;90.20;;;;;;4956107;29;20047;-85
2022/06/21 15:07:54;;;;;;;4.45;1.13;;;24.10;88.70;;;;;;4950317;29;20055;-85
2022/06/21 15:10:27;;;;;;;3.58;1.10;;;24.20;91.20;;;;;;4956767;28;20039;-86
2022/06/21 15:13:03;;;;;;;5.63;1.20;;;24.20;89.60;;;;;;4955521;29;20122;-85
2022/06/21 15:15:34;;;;;;;3.42;0.95;;;24.30;90.50;;;;;;4955011;29;20522;-84
2022/06/21 15:18:28;;;;;;;2.78;0.90;;;24.20;89.00;;;;;;4957098;29;20547;-84
2022/06/21 15:21:16;;;;;;;2.38;1.00;;;24.20;87.90;;;;;;4949820;28;20500;-82
2022/06/21 15:24:09;;;;;;;5.40;1.17;;;24.20;88.70;;;;;;4956833;29;20058;-85
2022/06/21 15:26:39;;;;;;;4.97;1.20;;;24.10;90.90;;;;;;4955660;29;20138;-84
2022/06/21 15:29:23;;;;;;;2.40;1.02;;;24.10;91.30;;;;;;4957301;29;20046;-85
2022/06/21 15:32:06;;;;;;;3.97;1.48;;;24.10;90.80;;;;;;4955633;28;20039;-84
2022/06/21 15:34:38;;;;;;;4.07;1.20;;;23.90;89.50;;;;;;4955684;29;20131;-83
2022/06/21 15:37:32;;;;;;;5.30;1.10;;;23.70;89.20;;;;;;4955710;29;20449;-83
2022/06/21 15:40:16;;;;;;;5.72;1.20;;;23.70;90.70;;;;;;4955311;29;20090;-85
2022/06/21 15:43:06;;;;;;;3.60;1.48;;;23.40;91.30;;;;;;4955227;29;20054;-83
2022/06/21 15:45:46;;;;;;;4.60;1.50;;;23.60;92.60;;;;;;4954657;29;20079;-84
2022/06/21 15:51:25;;;;;;;3.00;1.15;;;23.90;92.80;;;;;;4955883;28;20043;-85
2022/06/21 15:54:16;;;;;;;5.55;1.30;;;23.90;93.30;;;;;;4955235;29;20495;-83
2022/06/21 15:57:09;;;;;;;2.85;1.30;;;23.70;93.40;;;;;;4955101;29;20130;-84
2022/06/21 15:59:45;;;;;;;3.47;1.42;;;23.50;94.10;;;;;;4956529;29;20093;-84
2022/06/21 16:02:14;;;;;;;5.00;1.60;;;23.30;95.30;;;;;;4970921;28;20119;-82
2022/06/21 16:05:02;;;;;;;5.68;1.58;;;23.10;97.40;;;;;;4956140;29;20491;-84
2022/06/21 16:08:05;;;;;;;8.25;2.70;;;22.90;97.70;;;;;;4954347;29;20043;-83
2022/06/21 16:10:33;;;;;;;6.85;2.47;;;22.70;98.40;;;;;;4930304;28;20058;-82
2022/06/21 16:13:06;;;;;;;8.35;3.03;;;22.60;99.70;;;;;;4954981;29;20070;-83
2022/06/21 16:15:35;;;;;;;4.47;1.90;;;22.50;99.60;;;;;;4956110;28;20097;-84
2022/06/21 16:18:05;;;;;;;3.88;1.50;;;22.40;99.80;;;;;;4954695;29;20089;-84
2022/06/21 16:20:42;;;;;;;3.15;1.38;;;22.30;99.90;;;;;;4955945;28;20047;-83
2022/06/21 16:23:20;;;;;;;4.50;2.08;;;22.30;99.90;;;;;;4956187;29;20123;-80
2022/06/21 16:25:58;;;;;;;7.00;2.42;;;22.20;99.80;;;;;;4955463;28;20058;-83
2022/06/21 16:28:41;;;;;;;5.95;1.80;;;22.10;99.90;;;;;;4942560;29;20051;-84
2022/06/21 16:34:16;;;;;;;3.92;1.45;;;22.00;99.90;;;;;;4958117;29;20046;-84
2022/06/21 16:36:50;;;;;;;5.53;1.40;;;21.90;99.90;;;;;;4959551;29;20047;-83
2022/06/21 16:39:39;;;;;;;7.07;2.78;;;21.90;99.90;;;;;;4959433;29;20051;-82
2022/06/21 16:45:11;;;;;;;7.10;2.83;;;21.90;99.90;;;;;;4958079;29;20397;-84
2022/06/21 16:47:45;;;;;;;7.68;2.90;;;21.80;99.90;;;;;;4959405;29;20118;-83
2022/06/21 16:50:32;;;;;;;7.20;2.88;;;21.80;99.90;;;;;;4957419;29;20098;-83
2022/06/21 16:53:19;;;;;;;4.28;2.60;;;21.70;99.90;;;;;;4957613;29;20058;-83
2022/06/21 16:56:03;;;;;;;5.05;2.40;;;21.80;99.90;;;;;;4957451;29;20039;-85
2022/06/21 16:58:54;;;;;;;7.43;2.60;;;21.80;99.90;;;;;;4973813;28;20050;-83
2022/06/21 17:01:23;;;;;;;5.40;2.55;;;21.90;99.90;;;;;;4957521;28;20039;-82
2022/06/21 17:03:53;;;;;;;4.15;2.40;;;21.80;99.90;;;;;;4957359;29;20451;-82
2022/06/21 17:06:42;;;;;;;6.80;2.30;;;21.80;99.90;;;;;;4957102;29;20049;-84
2022/06/21 17:09:10;;;;;;;13.45;3.28;;;21.90;99.90;;;;;;4956975;29;20059;-81
2022/06/21 17:11:50;;;;;;;7.30;2.70;;;21.90;99.90;;;;;;4957043;28;20047;-82